Terminal Aerodrome Forecast
Issued by NWS Tampa Bay Area, FL

Home | Current Version | Previous Version | Text Only | Print | Product List | Glossary On
Versions: 1 2 3 4 5 6 7 8 9 10 11 12 13 14 15
000
FTUS42 KTBW 211100
TAFSRQ
TAF
KSRQ 211131Z 2112/2212 VRB04KT P6SM SCT060 BKN200
     FM211800 26007KT P6SM FEW040 SCT100 BKN250
     FM220000 VRB03KT P6SM FEW100 BKN250=

USA.gov is the U.S. government's official web portal to all federal, state and local government web resources and services.